Aérodrome :
LOGIN :

S'inscrire | Disclaimer

   EN    FR    IT 

 










Légende :    VFR   VFR Marginal   IFR   IFR Intensif   IFR Très Intensif
Visi : 
Plafond : 
>= 8 km
>= 3000ft
5 à 8 km
1000 à 3000 ft
1500m à 5 km
500 à 1000 ft
800 à 1500m
200 à 500 ft
< 800m
< 200 ft
Symboles :   Orages  Brouillard  Fortes neiges  Fortes précipitations  Vent > 20 kt
SIGMETs :   Divers  Orages  Givrage  Turbulence  Onde Orograph.  Cendres Volcan.






- Altitude de l'aérodrome : 1299 ft


EDTY - Adolf Würth

DERNIER METAR :
  • 180550Z 09006KT CAVOK 15/14 Q1016

METARs EXPIRÉS :
  • 180520Z 09005KT CAVOK 14/13 Q1016
  • 180450Z 09005KT CAVOK 13/12 Q1016
  • 180420Z 09005KT CAVOK 11/11 Q1016
  • 180350Z AUTO 07003KT 040V110 9999 // NCD 11/11 Q1016
  • 180320Z AUTO 10003KT 9999 // SCT066/// 11/11 Q1016
  • 180250Z AUTO 09004KT 9999 // FEW069/// 11/10 Q1016
  • 180220Z AUTO 09002KT 9999 // NCD 12/11 Q1016
  • 180150Z AUTO 09002KT 9999 // NCD 11/11 Q1016
  • 180120Z AUTO 08002KT 9999 // NCD 11/11 Q1016

TAF TAF EDTY
Valide du 18 à 06h jusqu'au 18 à 15h UTC


180500Z 1806/1815 09004KT CAVOK
BECMG 1810/1812 19005KT



MET'MAP, la Météo Aéronautique d'un coup d'oeil ! - Copyright ORBIFLY Décembre 2007 - Disclaimer

ORBIFLY MET'MAP TEAM :

Programmation & Développement : Alexandra Zaïnal
Sur une idée originale de : Baudouin d'Aumeries
Soutien technique & logistique : Manuel Goepfert
Assistance : Marc-Olivier Méhu




SOURCES & CREDITS :

   NOAA